Cherryville, Missouri
Current Conditions -  °F | °C
As of 3:53 AM on Monday 26 Jan 2015 (Local Time) from KVIH Reporting Station
Overcast Overcast  
Wind Chill: 22°   Ceiling: 800
Heat Index: 29°   Visibility: 9mi
Dew Point: 26°   Wind: 7mph
Humidity: 89%   Direction: 290°WNW
Pressure: 30.03"   Gusts: NA
Location:  37.85°N, 91.28°W
Report Text: KVIH 260953Z AUTO 29006KT 9SM OVC008 M02/M03 A3003 RMK AO2 SLP179 T10171033
Loading
Personal Weather Stations






























Interactive Weather Map New forecast layout! Learn more

10-Day Weather Forecast

Advertisements
Track Severe Weather on mobile